Terminal Aerodrome Forecast
Issued by NWS

Home | Current Version | Previous Version | Text Only | Print | Product List | Glossary On
Versions: 1 2 3 4 5 6 7 8 9 10 11 12 13 14
000
FTUS46 KSEW 170203 AAA
TAFBLI
TAF AMD
KBLI 170203Z 1702/1724 15006KT P6SM SCT020 OVC060
      TEMPO 1702/1706 4SM -RA BR OVC020
     FM170600 18015G25KT P6SM -RA OVC020
     FM171200 16020G30KT 4SM -RA BR OVC015
     FM172100 18012G20KT P6SM -SHRA BKN025=

USA.gov is the U.S. government's official web portal to all federal, state and local government web resources and services.